Baton Rouge, Louisiana
Current Conditions -  °F | °C
As of 3:53 AM on Thursday 27 Nov 2014 (Local Time) from KBTR Reporting Station
Clear Clear  
Wind Chill:   Ceiling: Unl
Heat Index:   Visibility: 10mi
Dew Point:   Wind: 3mph
Humidity: 92%   Direction: 280°W
Pressure: 30.35"   Gusts: NA
Location:  30.44°N, 91.19°W
Report Text: KBTR 270953Z AUTO 28003KT 10SM CLR 06/04 A3035 RMK AO2 SLP276 T00560044 TSNO
Loading
Personal Weather Stations






























Interactive Weather Map New forecast layout! Learn more

10-Day Weather Forecast

Advertisements
Track Severe Weather on mobile